sensor_id;sensor_type;location;lat;lon;timestamp;P1;durP1;ratioP1;P2;durP2;ratioP2
1020;SDS011;499;42.648;23.270;2022-09-09T00:01:58;1.20;;;1.10;;
1020;SDS011;499;42.648;23.270;2022-09-09T00:04:30;1.10;;;1.00;;
1020;SDS011;499;42.648;23.270;2022-09-09T00:07:03;1.57;;;1.23;;
1020;SDS011;499;42.648;23.270;2022-09-09T00:09:38;1.20;;;0.67;;
1020;SDS011;499;42.648;23.270;2022-09-09T00:12:10;1.20;;;0.80;;
1020;SDS011;499;42.648;23.270;2022-09-09T00:14:43;1.80;;;1.40;;
1020;SDS011;499;42.648;23.270;2022-09-09T00:17:18;1.20;;;0.60;;
1020;SDS011;499;42.648;23.270;2022-09-09T00:19:53;1.57;;;0.83;;
1020;SDS011;499;42.648;23.270;2022-09-09T00:22:25;1.10;;;0.93;;
1020;SDS011;499;42.648;23.270;2022-09-09T00:24:58;1.23;;;0.77;;
1020;SDS011;499;42.648;23.270;2022-09-09T00:27:36;1.23;;;0.90;;
1020;SDS011;499;42.648;23.270;2022-09-09T00:30:13;1.87;;;1.50;;
1020;SDS011;499;42.648;23.270;2022-09-09T00:32:44;1.40;;;1.00;;
1020;SDS011;499;42.648;23.270;2022-09-09T00:35:14;1.23;;;1.10;;
1020;SDS011;499;42.648;23.270;2022-09-09T00:37:45;1.40;;;1.10;;
1020;SDS011;499;42.648;23.270;2022-09-09T00:40:18;1.30;;;1.20;;
1020;SDS011;499;42.648;23.270;2022-09-09T00:42:52;0.90;;;0.70;;
1020;SDS011;499;42.648;23.270;2022-09-09T00:45:37;1.50;;;1.03;;
1020;SDS011;499;42.648;23.270;2022-09-09T00:48:19;1.20;;;0.90;;
1020;SDS011;499;42.648;23.270;2022-09-09T00:50:55;1.47;;;1.33;;
1020;SDS011;499;42.648;23.270;2022-09-09T00:53:30;1.20;;;1.00;;
1020;SDS011;499;42.648;23.270;2022-09-09T00:56:12;0.90;;;0.70;;
1020;SDS011;499;42.648;23.270;2022-09-09T00:58:42;1.57;;;1.43;;
1020;SDS011;499;42.648;23.270;2022-09-09T01:01:15;1.00;;;0.80;;
1020;SDS011;499;42.648;23.270;2022-09-09T01:03:43;1.10;;;1.00;;
1020;SDS011;499;42.648;23.270;2022-09-09T01:06:16;1.30;;;1.13;;
1020;SDS011;499;42.648;23.270;2022-09-09T01:08:53;1.17;;;0.90;;
1020;SDS011;499;42.648;23.270;2022-09-09T01:11:42;1.00;;;0.90;;
1020;SDS011;499;42.648;23.270;2022-09-09T01:14:24;1.30;;;1.20;;
1020;SDS011;499;42.648;23.270;2022-09-09T01:17:06;1.20;;;1.00;;
1020;SDS011;499;42.648;23.270;2022-09-09T01:19:44;1.40;;;1.03;;
1020;SDS011;499;42.648;23.270;2022-09-09T01:22:21;1.10;;;0.70;;
1020;SDS011;499;42.648;23.270;2022-09-09T01:25:01;1.30;;;0.77;;
1020;SDS011;499;42.648;23.270;2022-09-09T01:27:42;1.00;;;0.80;;
1020;SDS011;499;42.648;23.270;2022-09-09T01:30:11;2.40;;;1.00;;
1020;SDS011;499;42.648;23.270;2022-09-09T01:32:41;1.40;;;1.10;;
1020;SDS011;499;42.648;23.270;2022-09-09T01:35:10;1.20;;;0.90;;
1020;SDS011;499;42.648;23.270;2022-09-09T01:37:54;1.20;;;1.00;;
1020;SDS011;499;42.648;23.270;2022-09-09T01:40:21;1.30;;;0.97;;
1020;SDS011;499;42.648;23.270;2022-09-09T01:42:51;0.90;;;0.63;;
1020;SDS011;499;42.648;23.270;2022-09-09T01:45:19;1.00;;;0.90;;
1020;SDS011;499;42.648;23.270;2022-09-09T01:47:47;1.30;;;1.13;;
1020;SDS011;499;42.648;23.270;2022-09-09T01:50:15;1.30;;;1.17;;
1020;SDS011;499;42.648;23.270;2022-09-09T01:52:43;1.20;;;1.03;;
1020;SDS011;499;42.648;23.270;2022-09-09T01:55:11;0.90;;;0.60;;
1020;SDS011;499;42.648;23.270;2022-09-09T01:57:39;1.80;;;1.07;;
1020;SDS011;499;42.648;23.270;2022-09-09T02:00:13;0.93;;;0.80;;
1020;SDS011;499;42.648;23.270;2022-09-09T02:02:43;0.90;;;0.80;;
1020;SDS011;499;42.648;23.270;2022-09-09T02:05:17;0.93;;;0.83;;
1020;SDS011;499;42.648;23.270;2022-09-09T02:07:55;1.43;;;1.30;;
1020;SDS011;499;42.648;23.270;2022-09-09T02:10:30;1.50;;;0.80;;
1020;SDS011;499;42.648;23.270;2022-09-09T02:13:00;1.17;;;1.07;;
1020;SDS011;499;42.648;23.270;2022-09-09T02:15:34;0.90;;;0.60;;
1020;SDS011;499;42.648;23.270;2022-09-09T02:18:05;1.10;;;0.80;;
1020;SDS011;499;42.648;23.270;2022-09-09T02:20:37;1.33;;;1.03;;
1020;SDS011;499;42.648;23.270;2022-09-09T02:23:05;0.80;;;0.70;;
1020;SDS011;499;42.648;23.270;2022-09-09T02:25:35;1.30;;;1.10;;
1020;SDS011;499;42.648;23.270;2022-09-09T02:28:03;1.20;;;1.10;;
1020;SDS011;499;42.648;23.270;2022-09-09T02:30:36;1.80;;;1.57;;
1020;SDS011;499;42.648;23.270;2022-09-09T02:33:06;1.10;;;0.80;;
1020;SDS011;499;42.648;23.270;2022-09-09T02:35:35;1.20;;;0.70;;
1020;SDS011;499;42.648;23.270;2022-09-09T02:38:05;0.90;;;0.77;;
1020;SDS011;499;42.648;23.270;2022-09-09T02:40:35;1.40;;;1.17;;
1020;SDS011;499;42.648;23.270;2022-09-09T02:43:02;1.70;;;1.60;;
1020;SDS011;499;42.648;23.270;2022-09-09T02:45:31;1.63;;;1.33;;
1020;SDS011;499;42.648;23.270;2022-09-09T02:48:09;1.43;;;1.10;;
1020;SDS011;499;42.648;23.270;2022-09-09T02:50:41;1.47;;;1.37;;
1020;SDS011;499;42.648;23.270;2022-09-09T02:53:16;1.60;;;1.30;;
1020;SDS011;499;42.648;23.270;2022-09-09T02:55:47;0.97;;;0.70;;
1020;SDS011;499;42.648;23.270;2022-09-09T02:58:19;1.30;;;1.03;;
1020;SDS011;499;42.648;23.270;2022-09-09T03:00:49;1.63;;;1.47;;
1020;SDS011;499;42.648;23.270;2022-09-09T03:03:17;1.40;;;1.30;;
1020;SDS011;499;42.648;23.270;2022-09-09T03:05:47;1.23;;;1.00;;
1020;SDS011;499;42.648;23.270;2022-09-09T03:08:14;1.47;;;1.20;;
1020;SDS011;499;42.648;23.270;2022-09-09T03:10:42;1.07;;;0.80;;
1020;SDS011;499;42.648;23.270;2022-09-09T03:13:09;1.20;;;0.90;;
1020;SDS011;499;42.648;23.270;2022-09-09T03:15:38;1.33;;;0.93;;
1020;SDS011;499;42.648;23.270;2022-09-09T03:18:06;1.37;;;0.90;;
1020;SDS011;499;42.648;23.270;2022-09-09T03:20:34;1.20;;;1.10;;
1020;SDS011;499;42.648;23.270;2022-09-09T03:23:01;1.37;;;1.27;;
1020;SDS011;499;42.648;23.270;2022-09-09T03:25:29;1.10;;;0.80;;
1020;SDS011;499;42.648;23.270;2022-09-09T03:27:57;1.50;;;1.03;;
1020;SDS011;499;42.648;23.270;2022-09-09T03:30:25;1.20;;;1.03;;
1020;SDS011;499;42.648;23.270;2022-09-09T03:32:53;0.90;;;0.70;;
1020;SDS011;499;42.648;23.270;2022-09-09T03:35:23;1.13;;;0.80;;
1020;SDS011;499;42.648;23.270;2022-09-09T03:37:52;1.30;;;0.83;;
1020;SDS011;499;42.648;23.270;2022-09-09T03:40:20;1.50;;;1.40;;
1020;SDS011;499;42.648;23.270;2022-09-09T03:42:48;1.10;;;0.80;;
1020;SDS011;499;42.648;23.270;2022-09-09T03:45:15;1.77;;;1.63;;
1020;SDS011;499;42.648;23.270;2022-09-09T03:47:42;1.17;;;0.97;;
1020;SDS011;499;42.648;23.270;2022-09-09T03:50:09;1.17;;;1.07;;
1020;SDS011;499;42.648;23.270;2022-09-09T03:52:39;1.00;;;0.90;;
1020;SDS011;499;42.648;23.270;2022-09-09T03:55:07;1.20;;;1.03;;
1020;SDS011;499;42.648;23.270;2022-09-09T03:57:34;1.30;;;0.90;;
1020;SDS011;499;42.648;23.270;2022-09-09T04:00:02;1.77;;;1.10;;
1020;SDS011;499;42.648;23.270;2022-09-09T04:02:30;1.43;;;1.33;;
1020;SDS011;499;42.648;23.270;2022-09-09T04:04:57;1.77;;;1.20;;
1020;SDS011;499;42.648;23.270;2022-09-09T04:07:24;1.77;;;1.60;;
1020;SDS011;499;42.648;23.270;2022-09-09T04:09:53;1.60;;;1.43;;
1020;SDS011;499;42.648;23.270;2022-09-09T04:12:20;2.30;;;1.30;;
1020;SDS011;499;42.648;23.270;2022-09-09T04:14:47;1.40;;;1.27;;
1020;SDS011;499;42.648;23.270;2022-09-09T04:17:15;1.23;;;1.10;;
1020;SDS011;499;42.648;23.270;2022-09-09T04:19:42;1.50;;;1.40;;
1020;SDS011;499;42.648;23.270;2022-09-09T04:22:09;1.50;;;1.40;;
1020;SDS011;499;42.648;23.270;2022-09-09T04:24:36;1.43;;;1.33;;
1020;SDS011;499;42.648;23.270;2022-09-09T04:27:05;1.37;;;1.10;;
1020;SDS011;499;42.648;23.270;2022-09-09T04:29:32;1.17;;;1.00;;
1020;SDS011;499;42.648;23.270;2022-09-09T04:31:59;1.30;;;1.17;;
1020;SDS011;499;42.648;23.270;2022-09-09T04:34:27;1.43;;;1.33;;
1020;SDS011;499;42.648;23.270;2022-09-09T04:36:54;1.40;;;1.00;;
1020;SDS011;499;42.648;23.270;2022-09-09T04:39:22;1.87;;;1.70;;
1020;SDS011;499;42.648;23.270;2022-09-09T04:41:49;1.53;;;1.43;;
1020;SDS011;499;42.648;23.270;2022-09-09T04:44:18;1.47;;;1.27;;
1020;SDS011;499;42.648;23.270;2022-09-09T04:46:45;1.20;;;0.97;;
1020;SDS011;499;42.648;23.270;2022-09-09T04:49:12;1.20;;;1.10;;
1020;SDS011;499;42.648;23.270;2022-09-09T04:51:39;1.37;;;1.17;;
1020;SDS011;499;42.648;23.270;2022-09-09T04:54:06;1.77;;;1.63;;
1020;SDS011;499;42.648;23.270;2022-09-09T04:56:33;1.43;;;1.33;;
1020;SDS011;499;42.648;23.270;2022-09-09T04:59:01;1.27;;;1.00;;
1020;SDS011;499;42.648;23.270;2022-09-09T05:01:30;0.90;;;0.70;;
1020;SDS011;499;42.648;23.270;2022-09-09T05:03:57;1.10;;;0.97;;
1020;SDS011;499;42.648;23.270;2022-09-09T05:06:24;1.10;;;0.80;;
1020;SDS011;499;42.648;23.270;2022-09-09T05:08:52;1.90;;;1.73;;
1020;SDS011;499;42.648;23.270;2022-09-09T05:11:19;2.07;;;1.90;;
1020;SDS011;499;42.648;23.270;2022-09-09T05:13:48;2.10;;;1.90;;
1020;SDS011;499;42.648;23.270;2022-09-09T05:16:16;1.43;;;1.33;;
1020;SDS011;499;42.648;23.270;2022-09-09T05:18:45;1.60;;;1.40;;
1020;SDS011;499;42.648;23.270;2022-09-09T05:21:14;1.73;;;1.63;;
1020;SDS011;499;42.648;23.270;2022-09-09T05:23:42;1.23;;;1.07;;
1020;SDS011;499;42.648;23.270;2022-09-09T05:26:12;2.20;;;2.00;;
1020;SDS011;499;42.648;23.270;2022-09-09T05:28:41;1.33;;;1.23;;
1020;SDS011;499;42.648;23.270;2022-09-09T05:31:08;1.93;;;1.63;;
1020;SDS011;499;42.648;23.270;2022-09-09T05:33:37;1.17;;;0.70;;
1020;SDS011;499;42.648;23.270;2022-09-09T05:36:07;1.17;;;1.07;;
1020;SDS011;499;42.648;23.270;2022-09-09T05:38:35;1.70;;;1.13;;
1020;SDS011;499;42.648;23.270;2022-09-09T05:41:03;1.40;;;0.97;;
1020;SDS011;499;42.648;23.270;2022-09-09T05:43:30;1.50;;;1.40;;
1020;SDS011;499;42.648;23.270;2022-09-09T05:46:01;2.50;;;1.57;;
1020;SDS011;499;42.648;23.270;2022-09-09T05:48:29;1.50;;;0.93;;
1020;SDS011;499;42.648;23.270;2022-09-09T05:50:57;1.83;;;1.20;;
1020;SDS011;499;42.648;23.270;2022-09-09T05:53:26;1.73;;;1.17;;
1020;SDS011;499;42.648;23.270;2022-09-09T05:56:00;1.93;;;1.83;;
1020;SDS011;499;42.648;23.270;2022-09-09T05:58:29;1.83;;;0.90;;
1020;SDS011;499;42.648;23.270;2022-09-09T06:01:03;1.00;;;0.70;;
1020;SDS011;499;42.648;23.270;2022-09-09T06:03:31;1.37;;;1.27;;
1020;SDS011;499;42.648;23.270;2022-09-09T06:05:59;1.20;;;0.80;;
1020;SDS011;499;42.648;23.270;2022-09-09T06:08:31;2.00;;;1.73;;
1020;SDS011;499;42.648;23.270;2022-09-09T06:11:02;2.03;;;1.83;;
1020;SDS011;499;42.648;23.270;2022-09-09T06:13:31;0.90;;;0.53;;
1020;SDS011;499;42.648;23.270;2022-09-09T06:15:58;1.33;;;1.10;;
1020;SDS011;499;42.648;23.270;2022-09-09T06:18:25;1.53;;;1.33;;
1020;SDS011;499;42.648;23.270;2022-09-09T06:20:53;1.00;;;0.80;;
1020;SDS011;499;42.648;23.270;2022-09-09T06:23:21;1.50;;;1.30;;
1020;SDS011;499;42.648;23.270;2022-09-09T06:25:50;1.37;;;0.80;;
1020;SDS011;499;42.648;23.270;2022-09-09T06:28:17;1.70;;;1.53;;
1020;SDS011;499;42.648;23.270;2022-09-09T06:30:44;1.23;;;0.70;;
1020;SDS011;499;42.648;23.270;2022-09-09T06:33:12;2.80;;;2.27;;
1020;SDS011;499;42.648;23.270;2022-09-09T06:35:40;1.77;;;1.40;;
1020;SDS011;499;42.648;23.270;2022-09-09T06:38:07;2.20;;;2.00;;
1020;SDS011;499;42.648;23.270;2022-09-09T06:40:34;1.63;;;0.83;;
1020;SDS011;499;42.648;23.270;2022-09-09T06:43:03;1.13;;;0.53;;
1020;SDS011;499;42.648;23.270;2022-09-09T06:45:31;1.37;;;1.27;;
1020;SDS011;499;42.648;23.270;2022-09-09T06:47:58;2.50;;;1.80;;
1020;SDS011;499;42.648;23.270;2022-09-09T06:50:25;2.07;;;1.87;;
1020;SDS011;499;42.648;23.270;2022-09-09T06:52:52;0.97;;;0.60;;
1020;SDS011;499;42.648;23.270;2022-09-09T06:55:20;1.13;;;0.90;;
1020;SDS011;499;42.648;23.270;2022-09-09T06:57:47;3.00;;;1.83;;
1020;SDS011;499;42.648;23.270;2022-09-09T07:00:15;1.53;;;1.43;;
1020;SDS011;499;42.648;23.270;2022-09-09T07:02:42;1.57;;;1.03;;
1020;SDS011;499;42.648;23.270;2022-09-09T07:05:10;1.33;;;1.13;;
1020;SDS011;499;42.648;23.270;2022-09-09T07:07:37;2.70;;;0.80;;
1020;SDS011;499;42.648;23.270;2022-09-09T07:10:04;0.90;;;0.43;;
1020;SDS011;499;42.648;23.270;2022-09-09T07:12:32;1.20;;;0.70;;
1020;SDS011;499;42.648;23.270;2022-09-09T07:14:59;1.00;;;0.50;;
1020;SDS011;499;42.648;23.270;2022-09-09T07:17:28;1.53;;;0.70;;
1020;SDS011;499;42.648;23.270;2022-09-09T07:19:55;0.90;;;0.70;;
1020;SDS011;499;42.648;23.270;2022-09-09T07:22:22;1.30;;;0.80;;
1020;SDS011;499;42.648;23.270;2022-09-09T07:24:50;1.20;;;0.97;;
1020;SDS011;499;42.648;23.270;2022-09-09T07:27:17;1.13;;;1.03;;
1020;SDS011;499;42.648;23.270;2022-09-09T07:29:44;1.17;;;0.80;;
1020;SDS011;499;42.648;23.270;2022-09-09T07:32:11;1.07;;;0.50;;
1020;SDS011;499;42.648;23.270;2022-09-09T07:34:40;1.50;;;0.60;;
1020;SDS011;499;42.648;23.270;2022-09-09T07:37:07;1.00;;;0.60;;
1020;SDS011;499;42.648;23.270;2022-09-09T07:39:36;1.13;;;0.70;;
1020;SDS011;499;42.648;23.270;2022-09-09T07:42:04;1.03;;;0.50;;
1020;SDS011;499;42.648;23.270;2022-09-09T07:44:32;1.20;;;0.90;;
1020;SDS011;499;42.648;23.270;2022-09-09T07:47:00;1.07;;;0.60;;
1020;SDS011;499;42.648;23.270;2022-09-09T07:49:27;0.93;;;0.40;;
1020;SDS011;499;42.648;23.270;2022-09-09T07:51:55;1.20;;;0.77;;
1020;SDS011;499;42.648;23.270;2022-09-09T07:54:22;1.10;;;0.70;;
1020;SDS011;499;42.648;23.270;2022-09-09T07:56:51;2.13;;;2.03;;
1020;SDS011;499;42.648;23.270;2022-09-09T07:59:19;1.03;;;0.70;;
1020;SDS011;499;42.648;23.270;2022-09-09T08:01:46;1.40;;;0.80;;
1020;SDS011;499;42.648;23.270;2022-09-09T08:04:19;1.00;;;0.60;;
1020;SDS011;499;42.648;23.270;2022-09-09T08:06:47;1.20;;;0.70;;
1020;SDS011;499;42.648;23.270;2022-09-09T08:09:19;1.50;;;1.13;;
1020;SDS011;499;42.648;23.270;2022-09-09T08:11:47;1.03;;;0.50;;
1020;SDS011;499;42.648;23.270;2022-09-09T08:14:14;0.93;;;0.47;;
1020;SDS011;499;42.648;23.270;2022-09-09T08:16:42;1.30;;;0.50;;
1020;SDS011;499;42.648;23.270;2022-09-09T08:19:10;1.10;;;0.47;;
1020;SDS011;499;42.648;23.270;2022-09-09T08:21:38;1.00;;;0.40;;
1020;SDS011;499;42.648;23.270;2022-09-09T08:24:07;1.10;;;0.50;;
1020;SDS011;499;42.648;23.270;2022-09-09T08:26:38;1.00;;;0.50;;
1020;SDS011;499;42.648;23.270;2022-09-09T08:29:06;0.90;;;0.33;;
1020;SDS011;499;42.648;23.270;2022-09-09T08:31:35;1.30;;;0.60;;
1020;SDS011;499;42.648;23.270;2022-09-09T08:34:04;1.00;;;0.60;;
1020;SDS011;499;42.648;23.270;2022-09-09T08:36:32;1.30;;;0.50;;
1020;SDS011;499;42.648;23.270;2022-09-09T08:39:01;1.30;;;0.90;;
1020;SDS011;499;42.648;23.270;2022-09-09T08:41:35;1.17;;;0.50;;
1020;SDS011;499;42.648;23.270;2022-09-09T08:44:14;1.10;;;0.77;;
1020;SDS011;499;42.648;23.270;2022-09-09T08:46:51;0.80;;;0.40;;
1020;SDS011;499;42.648;23.270;2022-09-09T08:49:37;1.27;;;0.40;;
1020;SDS011;499;42.648;23.270;2022-09-09T08:52:16;2.53;;;1.30;;
1020;SDS011;499;42.648;23.270;2022-09-09T08:54:47;1.30;;;0.80;;
1020;SDS011;499;42.648;23.270;2022-09-09T08:57:18;0.97;;;0.50;;
1020;SDS011;499;42.648;23.270;2022-09-09T08:59:48;1.10;;;0.67;;
1020;SDS011;499;42.648;23.270;2022-09-09T09:02:17;1.00;;;0.50;;
1020;SDS011;499;42.648;23.270;2022-09-09T09:04:54;1.00;;;0.30;;
1020;SDS011;499;42.648;23.270;2022-09-09T09:07:32;1.00;;;0.50;;
1020;SDS011;499;42.648;23.270;2022-09-09T09:10:10;0.90;;;0.40;;
1020;SDS011;499;42.648;23.270;2022-09-09T09:12:47;1.20;;;0.40;;
1020;SDS011;499;42.648;23.270;2022-09-09T09:15:17;1.20;;;0.70;;
1020;SDS011;499;42.648;23.270;2022-09-09T09:17:47;0.90;;;0.40;;
1020;SDS011;499;42.648;23.270;2022-09-09T09:20:15;0.90;;;0.30;;
1020;SDS011;499;42.648;23.270;2022-09-09T09:22:47;0.97;;;0.47;;
1020;SDS011;499;42.648;23.270;2022-09-09T09:25:17;1.10;;;0.47;;
1020;SDS011;499;42.648;23.270;2022-09-09T09:27:49;1.00;;;0.30;;
1020;SDS011;499;42.648;23.270;2022-09-09T09:30:24;1.00;;;0.40;;
1020;SDS011;499;42.648;23.270;2022-09-09T09:32:57;1.00;;;0.60;;
1020;SDS011;499;42.648;23.270;2022-09-09T09:35:28;0.90;;;0.30;;
1020;SDS011;499;42.648;23.270;2022-09-09T09:37:55;1.10;;;0.40;;
1020;SDS011;499;42.648;23.270;2022-09-09T09:40:22;1.10;;;0.60;;
1020;SDS011;499;42.648;23.270;2022-09-09T09:42:54;0.90;;;0.50;;
1020;SDS011;499;42.648;23.270;2022-09-09T09:45:27;0.90;;;0.37;;
1020;SDS011;499;42.648;23.270;2022-09-09T09:48:00;1.30;;;0.40;;
1020;SDS011;499;42.648;23.270;2022-09-09T09:50:29;0.90;;;0.30;;
1020;SDS011;499;42.648;23.270;2022-09-09T09:52:58;0.90;;;0.40;;
1020;SDS011;499;42.648;23.270;2022-09-09T09:55:29;1.10;;;0.30;;
1020;SDS011;499;42.648;23.270;2022-09-09T09:58:04;0.90;;;0.40;;
1020;SDS011;499;42.648;23.270;2022-09-09T10:00:32;0.90;;;0.30;;
1020;SDS011;499;42.648;23.270;2022-09-09T10:03:01;0.87;;;0.30;;
1020;SDS011;499;42.648;23.270;2022-09-09T10:05:38;0.80;;;0.30;;
1020;SDS011;499;42.648;23.270;2022-09-09T10:08:13;0.93;;;0.43;;
1020;SDS011;499;42.648;23.270;2022-09-09T10:13:31;1.00;;;0.37;;
1020;SDS011;499;42.648;23.270;2022-09-09T10:16:13;0.97;;;0.40;;
1020;SDS011;499;42.648;23.270;2022-09-09T10:18:52;1.13;;;0.50;;
1020;SDS011;499;42.648;23.270;2022-09-09T10:24:25;0.90;;;0.33;;
1020;SDS011;499;42.648;23.270;2022-09-09T10:27:11;1.00;;;0.50;;
1020;SDS011;499;42.648;23.270;2022-09-09T10:29:50;0.90;;;0.40;;
1020;SDS011;499;42.648;23.270;2022-09-09T10:32:33;1.20;;;0.40;;
1020;SDS011;499;42.648;23.270;2022-09-09T10:35:04;1.87;;;0.50;;
1020;SDS011;499;42.648;23.270;2022-09-09T10:37:51;0.90;;;0.37;;
1020;SDS011;499;42.648;23.270;2022-09-09T10:40:37;1.00;;;0.60;;
1020;SDS011;499;42.648;23.270;2022-09-09T10:43:13;0.80;;;0.30;;
1020;SDS011;499;42.648;23.270;2022-09-09T10:45:53;1.10;;;0.60;;
1020;SDS011;499;42.648;23.270;2022-09-09T10:48:30;1.00;;;0.40;;
1020;SDS011;499;42.648;23.270;2022-09-09T10:51:09;1.00;;;0.40;;
1020;SDS011;499;42.648;23.270;2022-09-09T10:53:50;1.00;;;0.37;;
1020;SDS011;499;42.648;23.270;2022-09-09T10:56:22;1.00;;;0.47;;
1020;SDS011;499;42.648;23.270;2022-09-09T10:58:52;1.27;;;0.70;;
1020;SDS011;499;42.648;23.270;2022-09-09T11:01:25;1.10;;;0.63;;
1020;SDS011;499;42.648;23.270;2022-09-09T11:03:56;0.90;;;0.30;;
1020;SDS011;499;42.648;23.270;2022-09-09T11:06:29;0.90;;;0.40;;
1020;SDS011;499;42.648;23.270;2022-09-09T11:09:00;1.00;;;0.70;;
1020;SDS011;499;42.648;23.270;2022-09-09T11:11:32;2.90;;;0.73;;
1020;SDS011;499;42.648;23.270;2022-09-09T11:14:03;1.10;;;0.50;;
1020;SDS011;499;42.648;23.270;2022-09-09T11:16:40;0.90;;;0.40;;
1020;SDS011;499;42.648;23.270;2022-09-09T11:19:14;1.00;;;0.40;;
1020;SDS011;499;42.648;23.270;2022-09-09T11:21:46;1.10;;;0.40;;
1020;SDS011;499;42.648;23.270;2022-09-09T11:24:18;0.90;;;0.40;;
1020;SDS011;499;42.648;23.270;2022-09-09T11:26:51;0.80;;;0.30;;
1020;SDS011;499;42.648;23.270;2022-09-09T11:32:43;1.00;;;0.50;;
1020;SDS011;499;42.648;23.270;2022-09-09T11:35:30;1.00;;;0.50;;
1020;SDS011;499;42.648;23.270;2022-09-09T11:38:10;0.90;;;0.30;;
1020;SDS011;499;42.648;23.270;2022-09-09T11:40:44;0.90;;;0.40;;
1020;SDS011;499;42.648;23.270;2022-09-09T11:43:13;1.00;;;0.40;;
1020;SDS011;499;42.648;23.270;2022-09-09T11:45:42;1.30;;;0.70;;
1020;SDS011;499;42.648;23.270;2022-09-09T11:48:26;0.90;;;0.40;;
1020;SDS011;499;42.648;23.270;2022-09-09T11:51:05;1.37;;;0.60;;
1020;SDS011;499;42.648;23.270;2022-09-09T11:53:34;0.97;;;0.43;;
1020;SDS011;499;42.648;23.270;2022-09-09T11:56:03;2.07;;;0.60;;
1020;SDS011;499;42.648;23.270;2022-09-09T11:58:53;0.90;;;0.47;;
1020;SDS011;499;42.648;23.270;2022-09-09T12:01:26;1.10;;;0.40;;
1020;SDS011;499;42.648;23.270;2022-09-09T12:04:05;0.90;;;0.30;;
1020;SDS011;499;42.648;23.270;2022-09-09T12:06:50;1.00;;;0.40;;
1020;SDS011;499;42.648;23.270;2022-09-09T12:09:23;1.00;;;0.30;;
1020;SDS011;499;42.648;23.270;2022-09-09T12:14:55;1.10;;;0.40;;
1020;SDS011;499;42.648;23.270;2022-09-09T12:17:26;0.87;;;0.33;;
1020;SDS011;499;42.648;23.270;2022-09-09T12:20:08;2.60;;;0.70;;
1020;SDS011;499;42.648;23.270;2022-09-09T12:22:41;1.00;;;0.40;;
1020;SDS011;499;42.648;23.270;2022-09-09T12:25:28;0.90;;;0.30;;
1020;SDS011;499;42.648;23.270;2022-09-09T12:28:04;0.90;;;0.40;;
1020;SDS011;499;42.648;23.270;2022-09-09T12:30:44;1.10;;;0.57;;
1020;SDS011;499;42.648;23.270;2022-09-09T12:33:17;1.00;;;0.47;;
1020;SDS011;499;42.648;23.270;2022-09-09T12:35:49;1.00;;;0.30;;
1020;SDS011;499;42.648;23.270;2022-09-09T12:38:21;0.90;;;0.40;;
1020;SDS011;499;42.648;23.270;2022-09-09T12:40:55;1.10;;;0.50;;
1020;SDS011;499;42.648;23.270;2022-09-09T12:43:24;0.90;;;0.50;;
1020;SDS011;499;42.648;23.270;2022-09-09T12:45:54;0.90;;;0.30;;
1020;SDS011;499;42.648;23.270;2022-09-09T12:48:25;1.17;;;0.40;;
1020;SDS011;499;42.648;23.270;2022-09-09T12:51:00;0.90;;;0.30;;
1020;SDS011;499;42.648;23.270;2022-09-09T12:53:29;0.90;;;0.30;;
1020;SDS011;499;42.648;23.270;2022-09-09T12:55:59;1.00;;;0.43;;
1020;SDS011;499;42.648;23.270;2022-09-09T12:58:28;0.90;;;0.30;;
1020;SDS011;499;42.648;23.270;2022-09-09T13:00:58;1.00;;;0.57;;
1020;SDS011;499;42.648;23.270;2022-09-09T13:03:26;1.00;;;0.37;;
1020;SDS011;499;42.648;23.270;2022-09-09T13:05:57;0.90;;;0.37;;
1020;SDS011;499;42.648;23.270;2022-09-09T13:08:27;1.00;;;0.50;;
1020;SDS011;499;42.648;23.270;2022-09-09T13:10:56;1.20;;;0.40;;
1020;SDS011;499;42.648;23.270;2022-09-09T13:13:34;1.10;;;0.43;;
1020;SDS011;499;42.648;23.270;2022-09-09T13:16:03;0.80;;;0.20;;
1020;SDS011;499;42.648;23.270;2022-09-09T13:18:33;1.30;;;0.57;;
1020;SDS011;499;42.648;23.270;2022-09-09T13:21:03;1.13;;;0.53;;
1020;SDS011;499;42.648;23.270;2022-09-09T13:23:32;1.40;;;0.67;;
1020;SDS011;499;42.648;23.270;2022-09-09T13:26:02;0.97;;;0.63;;
1020;SDS011;499;42.648;23.270;2022-09-09T13:28:32;1.20;;;0.40;;
1020;SDS011;499;42.648;23.270;2022-09-09T13:31:01;0.90;;;0.30;;
1020;SDS011;499;42.648;23.270;2022-09-09T13:33:31;0.90;;;0.30;;
1020;SDS011;499;42.648;23.270;2022-09-09T13:35:59;0.83;;;0.30;;
1020;SDS011;499;42.648;23.270;2022-09-09T13:38:33;0.90;;;0.30;;
1020;SDS011;499;42.648;23.270;2022-09-09T13:41:03;0.87;;;0.30;;
1020;SDS011;499;42.648;23.270;2022-09-09T13:43:34;1.40;;;0.50;;
1020;SDS011;499;42.648;23.270;2022-09-09T13:46:04;0.90;;;0.40;;
1020;SDS011;499;42.648;23.270;2022-09-09T13:48:53;1.00;;;0.40;;
1020;SDS011;499;42.648;23.270;2022-09-09T13:51:26;0.83;;;0.37;;
1020;SDS011;499;42.648;23.270;2022-09-09T13:54:10;0.90;;;0.63;;
1020;SDS011;499;42.648;23.270;2022-09-09T13:56:39;0.90;;;0.30;;
1020;SDS011;499;42.648;23.270;2022-09-09T13:59:09;1.00;;;0.63;;
1020;SDS011;499;42.648;23.270;2022-09-09T14:01:38;0.90;;;0.43;;
1020;SDS011;499;42.648;23.270;2022-09-09T14:04:06;1.63;;;1.53;;
1020;SDS011;499;42.648;23.270;2022-09-09T14:06:33;1.30;;;0.93;;
1020;SDS011;499;42.648;23.270;2022-09-09T14:09:02;0.90;;;0.40;;
1020;SDS011;499;42.648;23.270;2022-09-09T14:11:31;1.23;;;0.80;;
1020;SDS011;499;42.648;23.270;2022-09-09T14:13:58;1.00;;;0.40;;
1020;SDS011;499;42.648;23.270;2022-09-09T14:16:26;0.93;;;0.40;;
1020;SDS011;499;42.648;23.270;2022-09-09T14:18:53;0.80;;;0.30;;
1020;SDS011;499;42.648;23.270;2022-09-09T14:21:22;1.40;;;0.70;;
1020;SDS011;499;42.648;23.270;2022-09-09T14:23:50;0.93;;;0.50;;
1020;SDS011;499;42.648;23.270;2022-09-09T14:26:17;2.20;;;1.03;;
1020;SDS011;499;42.648;23.270;2022-09-09T14:28:47;0.90;;;0.40;;
1020;SDS011;499;42.648;23.270;2022-09-09T14:31:15;1.40;;;0.60;;
1020;SDS011;499;42.648;23.270;2022-09-09T14:33:43;1.07;;;0.50;;
1020;SDS011;499;42.648;23.270;2022-09-09T14:36:10;1.10;;;0.50;;
1020;SDS011;499;42.648;23.270;2022-09-09T14:38:38;1.00;;;0.53;;
1020;SDS011;499;42.648;23.270;2022-09-09T14:41:06;1.10;;;0.70;;
1020;SDS011;499;42.648;23.270;2022-09-09T14:43:37;1.17;;;0.47;;
1020;SDS011;499;42.648;23.270;2022-09-09T14:46:06;1.00;;;0.47;;
1020;SDS011;499;42.648;23.270;2022-09-09T14:48:35;2.70;;;0.60;;
1020;SDS011;499;42.648;23.270;2022-09-09T14:51:06;1.33;;;0.60;;
1020;SDS011;499;42.648;23.270;2022-09-09T14:53:35;1.13;;;0.50;;
1020;SDS011;499;42.648;23.270;2022-09-09T14:56:03;0.97;;;0.40;;
1020;SDS011;499;42.648;23.270;2022-09-09T14:58:32;1.20;;;0.53;;
1020;SDS011;499;42.648;23.270;2022-09-09T15:01:03;0.90;;;0.37;;
1020;SDS011;499;42.648;23.270;2022-09-09T15:03:35;1.00;;;0.40;;
1020;SDS011;499;42.648;23.270;2022-09-09T15:06:06;1.10;;;0.73;;
1020;SDS011;499;42.648;23.270;2022-09-09T15:08:34;1.10;;;0.53;;
1020;SDS011;499;42.648;23.270;2022-09-09T15:11:02;1.20;;;0.63;;
1020;SDS011;499;42.648;23.270;2022-09-09T15:13:32;1.33;;;0.67;;
1020;SDS011;499;42.648;23.270;2022-09-09T15:16:03;1.17;;;0.73;;
1020;SDS011;499;42.648;23.270;2022-09-09T15:18:32;1.70;;;1.17;;
1020;SDS011;499;42.648;23.270;2022-09-09T15:21:01;1.77;;;0.73;;
1020;SDS011;499;42.648;23.270;2022-09-09T15:23:30;1.30;;;0.70;;
1020;SDS011;499;42.648;23.270;2022-09-09T15:25:58;0.93;;;0.40;;
1020;SDS011;499;42.648;23.270;2022-09-09T15:28:25;1.20;;;0.90;;
1020;SDS011;499;42.648;23.270;2022-09-09T15:30:52;0.90;;;0.40;;
1020;SDS011;499;42.648;23.270;2022-09-09T15:33:23;1.20;;;0.70;;
1020;SDS011;499;42.648;23.270;2022-09-09T15:35:50;0.90;;;0.30;;
1020;SDS011;499;42.648;23.270;2022-09-09T15:38:19;1.00;;;0.60;;
1020;SDS011;499;42.648;23.270;2022-09-09T15:40:52;1.00;;;0.50;;
1020;SDS011;499;42.648;23.270;2022-09-09T15:43:23;1.30;;;0.47;;
1020;SDS011;499;42.648;23.270;2022-09-09T15:45:52;1.47;;;1.00;;
1020;SDS011;499;42.648;23.270;2022-09-09T15:48:29;0.90;;;0.40;;
1020;SDS011;499;42.648;23.270;2022-09-09T15:51:01;1.50;;;0.77;;